sensor_id;sensor_type;location;lat;lon;timestamp;temperature;humidity
4697;DHT22;2362;50.780;0.292;2023-06-14T00:01:35;16.00;99.90
4697;DHT22;2362;50.780;0.292;2023-06-14T00:04:01;15.90;99.90
4697;DHT22;2362;50.780;0.292;2023-06-14T00:06:30;16.00;99.90
4697;DHT22;2362;50.780;0.292;2023-06-14T00:08:56;15.90;99.90
4697;DHT22;2362;50.780;0.292;2023-06-14T00:11:22;15.90;99.90
4697;DHT22;2362;50.780;0.292;2023-06-14T00:13:47;15.90;99.90
4697;DHT22;2362;50.780;0.292;2023-06-14T00:16:13;15.90;99.90
4697;DHT22;2362;50.780;0.292;2023-06-14T00:18:39;16.00;99.90
4697;DHT22;2362;50.780;0.292;2023-06-14T00:21:05;16.00;99.90
4697;DHT22;2362;50.780;0.292;2023-06-14T00:23:31;15.90;99.90
4697;DHT22;2362;50.780;0.292;2023-06-14T00:25:56;15.90;99.90
4697;DHT22;2362;50.780;0.292;2023-06-14T00:28:22;15.90;99.90
4697;DHT22;2362;50.780;0.292;2023-06-14T00:30:48;15.90;99.90
4697;DHT22;2362;50.780;0.292;2023-06-14T00:33:13;15.90;99.90
4697;DHT22;2362;50.780;0.292;2023-06-14T00:35:39;15.90;99.90
4697;DHT22;2362;50.780;0.292;2023-06-14T00:38:05;15.90;99.90
4697;DHT22;2362;50.780;0.292;2023-06-14T00:40:31;15.90;99.90
4697;DHT22;2362;50.780;0.292;2023-06-14T00:42:56;15.90;99.90
4697;DHT22;2362;50.780;0.292;2023-06-14T00:45:22;15.90;99.90
4697;DHT22;2362;50.780;0.292;2023-06-14T00:47:50;15.90;99.90
4697;DHT22;2362;50.780;0.292;2023-06-14T00:50:22;15.80;99.90
4697;DHT22;2362;50.780;0.292;2023-06-14T00:52:49;15.80;99.90
4697;DHT22;2362;50.780;0.292;2023-06-14T00:55:15;15.70;99.90
4697;DHT22;2362;50.780;0.292;2023-06-14T00:57:41;15.70;99.90
4697;DHT22;2362;50.780;0.292;2023-06-14T01:00:07;15.70;99.90
4697;DHT22;2362;50.780;0.292;2023-06-14T01:02:38;15.70;99.90
4697;DHT22;2362;50.780;0.292;2023-06-14T01:05:05;15.70;99.90
4697;DHT22;2362;50.780;0.292;2023-06-14T01:10:41;15.60;99.90
4697;DHT22;2362;50.780;0.292;2023-06-14T01:15:43;15.60;99.90
4697;DHT22;2362;50.780;0.292;2023-06-14T01:18:09;15.50;99.90
4697;DHT22;2362;50.780;0.292;2023-06-14T01:20:44;15.50;99.90
4697;DHT22;2362;50.780;0.292;2023-06-14T01:23:11;15.40;99.90
4697;DHT22;2362;50.780;0.292;2023-06-14T01:25:39;15.40;99.90
4697;DHT22;2362;50.780;0.292;2023-06-14T01:28:06;15.40;99.90
4697;DHT22;2362;50.780;0.292;2023-06-14T01:30:40;15.40;99.90
4697;DHT22;2362;50.780;0.292;2023-06-14T01:33:15;15.30;99.90
4697;DHT22;2362;50.780;0.292;2023-06-14T01:35:43;15.30;99.90
4697;DHT22;2362;50.780;0.292;2023-06-14T01:38:09;15.30;99.90
4697;DHT22;2362;50.780;0.292;2023-06-14T01:40:35;15.30;99.90
4697;DHT22;2362;50.780;0.292;2023-06-14T01:43:03;15.20;99.90
4697;DHT22;2362;50.780;0.292;2023-06-14T01:45:30;15.20;99.90
4697;DHT22;2362;50.780;0.292;2023-06-14T01:47:56;15.20;99.90
4697;DHT22;2362;50.780;0.292;2023-06-14T01:50:22;15.10;99.90
4697;DHT22;2362;50.780;0.292;2023-06-14T01:52:47;15.10;99.90
4697;DHT22;2362;50.780;0.292;2023-06-14T01:55:13;15.10;99.90
4697;DHT22;2362;50.780;0.292;2023-06-14T01:57:39;15.00;99.90
4697;DHT22;2362;50.780;0.292;2023-06-14T02:00:05;15.00;99.90
4697;DHT22;2362;50.780;0.292;2023-06-14T02:02:38;14.90;99.90
4697;DHT22;2362;50.780;0.292;2023-06-14T02:05:04;14.90;99.90
4697;DHT22;2362;50.780;0.292;2023-06-14T02:07:30;14.90;99.90
4697;DHT22;2362;50.780;0.292;2023-06-14T02:09:55;14.90;99.90
4697;DHT22;2362;50.780;0.292;2023-06-14T02:12:21;14.80;99.90
4697;DHT22;2362;50.780;0.292;2023-06-14T02:14:47;14.80;99.90
4697;DHT22;2362;50.780;0.292;2023-06-14T02:17:14;14.80;99.90
4697;DHT22;2362;50.780;0.292;2023-06-14T02:19:40;14.80;99.90
4697;DHT22;2362;50.780;0.292;2023-06-14T02:22:06;14.70;99.90
4697;DHT22;2362;50.780;0.292;2023-06-14T02:24:33;14.70;99.90
4697;DHT22;2362;50.780;0.292;2023-06-14T02:26:58;14.70;99.90
4697;DHT22;2362;50.780;0.292;2023-06-14T02:29:25;14.70;99.90
4697;DHT22;2362;50.780;0.292;2023-06-14T02:31:51;14.60;99.90
4697;DHT22;2362;50.780;0.292;2023-06-14T02:34:16;14.60;99.90
4697;DHT22;2362;50.780;0.292;2023-06-14T02:36:43;14.60;99.90
4697;DHT22;2362;50.780;0.292;2023-06-14T02:39:09;14.60;99.90
4697;DHT22;2362;50.780;0.292;2023-06-14T02:41:36;14.60;99.90
4697;DHT22;2362;50.780;0.292;2023-06-14T02:44:02;14.60;99.90
4697;DHT22;2362;50.780;0.292;2023-06-14T02:46:27;14.50;99.90
4697;DHT22;2362;50.780;0.292;2023-06-14T02:48:53;14.50;99.90
4697;DHT22;2362;50.780;0.292;2023-06-14T02:51:19;14.50;99.90
4697;DHT22;2362;50.780;0.292;2023-06-14T02:53:45;14.50;99.90
4697;DHT22;2362;50.780;0.292;2023-06-14T02:56:13;14.50;99.90
4697;DHT22;2362;50.780;0.292;2023-06-14T02:58:38;14.40;99.90
4697;DHT22;2362;50.780;0.292;2023-06-14T03:01:05;14.40;99.90
4697;DHT22;2362;50.780;0.292;2023-06-14T03:03:33;14.40;99.90
4697;DHT22;2362;50.780;0.292;2023-06-14T03:05:59;14.40;99.90
4697;DHT22;2362;50.780;0.292;2023-06-14T03:08:29;14.40;99.90
4697;DHT22;2362;50.780;0.292;2023-06-14T03:10:55;14.40;99.90
4697;DHT22;2362;50.780;0.292;2023-06-14T03:13:21;14.40;99.90
4697;DHT22;2362;50.780;0.292;2023-06-14T03:15:48;14.40;99.90
4697;DHT22;2362;50.780;0.292;2023-06-14T03:18:16;14.30;99.90
4697;DHT22;2362;50.780;0.292;2023-06-14T03:20:42;14.30;99.90
4697;DHT22;2362;50.780;0.292;2023-06-14T03:23:08;14.30;99.90
4697;DHT22;2362;50.780;0.292;2023-06-14T03:25:34;14.20;99.90
4697;DHT22;2362;50.780;0.292;2023-06-14T03:28:25;14.20;99.90
4697;DHT22;2362;50.780;0.292;2023-06-14T03:30:51;14.20;99.90
4697;DHT22;2362;50.780;0.292;2023-06-14T03:33:17;14.20;99.90
4697;DHT22;2362;50.780;0.292;2023-06-14T03:35:43;14.10;99.90
4697;DHT22;2362;50.780;0.292;2023-06-14T03:38:08;14.10;99.90
4697;DHT22;2362;50.780;0.292;2023-06-14T03:40:34;14.10;99.90
4697;DHT22;2362;50.780;0.292;2023-06-14T03:43:00;14.10;99.90
4697;DHT22;2362;50.780;0.292;2023-06-14T03:45:26;14.10;99.90
4697;DHT22;2362;50.780;0.292;2023-06-14T03:47:51;14.10;99.90
4697;DHT22;2362;50.780;0.292;2023-06-14T03:50:18;14.10;99.90
4697;DHT22;2362;50.780;0.292;2023-06-14T03:52:44;14.00;99.90
4697;DHT22;2362;50.780;0.292;2023-06-14T03:55:10;14.00;99.90
4697;DHT22;2362;50.780;0.292;2023-06-14T03:57:38;14.00;99.90
4697;DHT22;2362;50.780;0.292;2023-06-14T04:00:04;14.00;99.90
4697;DHT22;2362;50.780;0.292;2023-06-14T04:02:32;14.00;99.90
4697;DHT22;2362;50.780;0.292;2023-06-14T04:04:57;14.00;99.90
4697;DHT22;2362;50.780;0.292;2023-06-14T04:07:23;14.00;99.90
4697;DHT22;2362;50.780;0.292;2023-06-14T04:09:50;14.00;99.90
4697;DHT22;2362;50.780;0.292;2023-06-14T04:12:16;14.00;99.90
4697;DHT22;2362;50.780;0.292;2023-06-14T04:14:41;14.00;99.90
4697;DHT22;2362;50.780;0.292;2023-06-14T04:17:07;14.00;99.90
4697;DHT22;2362;50.780;0.292;2023-06-14T04:19:32;14.00;99.90
4697;DHT22;2362;50.780;0.292;2023-06-14T04:21:59;14.00;99.90
4697;DHT22;2362;50.780;0.292;2023-06-14T04:24:27;14.00;99.90
4697;DHT22;2362;50.780;0.292;2023-06-14T04:26:58;14.00;99.90
4697;DHT22;2362;50.780;0.292;2023-06-14T04:29:24;14.00;99.90
4697;DHT22;2362;50.780;0.292;2023-06-14T04:31:54;14.00;99.90
4697;DHT22;2362;50.780;0.292;2023-06-14T04:34:20;14.00;99.90
4697;DHT22;2362;50.780;0.292;2023-06-14T04:36:47;14.00;99.90
4697;DHT22;2362;50.780;0.292;2023-06-14T04:39:22;14.00;99.90
4697;DHT22;2362;50.780;0.292;2023-06-14T04:41:48;14.00;99.90
4697;DHT22;2362;50.780;0.292;2023-06-14T04:44:17;14.00;99.90
4697;DHT22;2362;50.780;0.292;2023-06-14T04:46:43;14.10;99.90
4697;DHT22;2362;50.780;0.292;2023-06-14T04:49:18;14.00;99.90
4697;DHT22;2362;50.780;0.292;2023-06-14T04:52:11;14.10;99.90
4697;DHT22;2362;50.780;0.292;2023-06-14T04:54:39;14.10;99.90
4697;DHT22;2362;50.780;0.292;2023-06-14T04:57:07;14.10;99.90
4697;DHT22;2362;50.780;0.292;2023-06-14T04:59:34;14.20;99.90
4697;DHT22;2362;50.780;0.292;2023-06-14T05:02:01;14.40;99.90
4697;DHT22;2362;50.780;0.292;2023-06-14T05:04:27;15.10;99.90
4697;DHT22;2362;50.780;0.292;2023-06-14T05:06:54;15.70;99.90
4697;DHT22;2362;50.780;0.292;2023-06-14T05:09:23;16.00;99.90
4697;DHT22;2362;50.780;0.292;2023-06-14T05:11:48;16.40;99.90
4697;DHT22;2362;50.780;0.292;2023-06-14T05:14:16;16.50;99.90
4697;DHT22;2362;50.780;0.292;2023-06-14T05:16:41;16.70;99.90
4697;DHT22;2362;50.780;0.292;2023-06-14T05:19:08;17.10;99.90
4697;DHT22;2362;50.780;0.292;2023-06-14T05:21:36;17.50;99.90
4697;DHT22;2362;50.780;0.292;2023-06-14T05:24:02;17.40;99.90
4697;DHT22;2362;50.780;0.292;2023-06-14T05:26:28;17.50;99.90
4697;DHT22;2362;50.780;0.292;2023-06-14T05:28:57;17.70;99.90
4697;DHT22;2362;50.780;0.292;2023-06-14T05:31:27;17.80;99.90
4697;DHT22;2362;50.780;0.292;2023-06-14T05:33:53;18.20;99.90
4697;DHT22;2362;50.780;0.292;2023-06-14T05:36:20;18.20;99.90
4697;DHT22;2362;50.780;0.292;2023-06-14T05:38:49;18.30;99.90
4697;DHT22;2362;50.780;0.292;2023-06-14T05:41:16;18.40;99.90
4697;DHT22;2362;50.780;0.292;2023-06-14T05:43:42;18.70;99.90
4697;DHT22;2362;50.780;0.292;2023-06-14T05:46:07;18.80;99.90
4697;DHT22;2362;50.780;0.292;2023-06-14T05:48:33;18.50;99.90
4697;DHT22;2362;50.780;0.292;2023-06-14T05:50:59;18.90;99.90
4697;DHT22;2362;50.780;0.292;2023-06-14T05:53:25;19.20;99.90
4697;DHT22;2362;50.780;0.292;2023-06-14T05:55:51;19.20;99.90
4697;DHT22;2362;50.780;0.292;2023-06-14T05:58:19;19.50;99.90
4697;DHT22;2362;50.780;0.292;2023-06-14T06:00:45;19.90;99.90
4697;DHT22;2362;50.780;0.292;2023-06-14T06:03:11;20.00;99.90
4697;DHT22;2362;50.780;0.292;2023-06-14T06:05:38;20.20;99.90
4697;DHT22;2362;50.780;0.292;2023-06-14T06:08:04;20.40;99.90
4697;DHT22;2362;50.780;0.292;2023-06-14T06:10:30;20.20;99.90
4697;DHT22;2362;50.780;0.292;2023-06-14T06:12:56;20.40;99.90
4697;DHT22;2362;50.780;0.292;2023-06-14T06:15:21;20.50;99.90
4697;DHT22;2362;50.780;0.292;2023-06-14T06:17:47;20.40;99.90
4697;DHT22;2362;50.780;0.292;2023-06-14T06:20:13;20.60;99.90
4697;DHT22;2362;50.780;0.292;2023-06-14T06:22:38;20.70;99.90
4697;DHT22;2362;50.780;0.292;2023-06-14T06:25:05;20.80;99.90
4697;DHT22;2362;50.780;0.292;2023-06-14T06:27:31;20.80;99.90
4697;DHT22;2362;50.780;0.292;2023-06-14T06:29:57;21.00;99.90
4697;DHT22;2362;50.780;0.292;2023-06-14T06:32:23;21.40;99.90
4697;DHT22;2362;50.780;0.292;2023-06-14T06:34:48;21.80;99.90
4697;DHT22;2362;50.780;0.292;2023-06-14T06:37:14;22.00;99.90
4697;DHT22;2362;50.780;0.292;2023-06-14T06:39:40;22.10;99.90
4697;DHT22;2362;50.780;0.292;2023-06-14T06:42:05;22.10;99.90
4697;DHT22;2362;50.780;0.292;2023-06-14T06:44:32;22.00;99.90
4697;DHT22;2362;50.780;0.292;2023-06-14T06:46:58;22.20;99.90
4697;DHT22;2362;50.780;0.292;2023-06-14T06:49:23;22.30;99.90
4697;DHT22;2362;50.780;0.292;2023-06-14T06:52:04;22.00;99.90
4697;DHT22;2362;50.780;0.292;2023-06-14T06:54:30;22.20;99.90
4697;DHT22;2362;50.780;0.292;2023-06-14T06:56:56;22.80;99.90
4697;DHT22;2362;50.780;0.292;2023-06-14T06:59:22;23.00;99.90
4697;DHT22;2362;50.780;0.292;2023-06-14T07:01:48;23.00;99.90
4697;DHT22;2362;50.780;0.292;2023-06-14T07:04:14;23.00;99.90
4697;DHT22;2362;50.780;0.292;2023-06-14T07:06:40;23.00;99.90
4697;DHT22;2362;50.780;0.292;2023-06-14T07:09:05;23.20;99.90
4697;DHT22;2362;50.780;0.292;2023-06-14T07:11:58;23.40;99.90
4697;DHT22;2362;50.780;0.292;2023-06-14T07:14:24;23.40;99.90
4697;DHT22;2362;50.780;0.292;2023-06-14T07:16:50;23.60;99.90
4697;DHT22;2362;50.780;0.292;2023-06-14T07:19:15;24.10;99.90
4697;DHT22;2362;50.780;0.292;2023-06-14T07:21:42;24.40;99.90
4697;DHT22;2362;50.780;0.292;2023-06-14T07:24:08;24.70;99.90
4697;DHT22;2362;50.780;0.292;2023-06-14T07:26:34;24.70;99.90
4697;DHT22;2362;50.780;0.292;2023-06-14T07:29:01;24.90;99.90
4697;DHT22;2362;50.780;0.292;2023-06-14T07:31:27;24.50;99.90
4697;DHT22;2362;50.780;0.292;2023-06-14T07:33:52;24.40;99.90
4697;DHT22;2362;50.780;0.292;2023-06-14T07:36:18;24.70;99.90
4697;DHT22;2362;50.780;0.292;2023-06-14T07:38:44;24.90;99.90
4697;DHT22;2362;50.780;0.292;2023-06-14T07:41:10;24.50;99.90
4697;DHT22;2362;50.780;0.292;2023-06-14T07:43:36;24.20;99.90
4697;DHT22;2362;50.780;0.292;2023-06-14T07:46:02;24.30;99.90
4697;DHT22;2362;50.780;0.292;2023-06-14T07:48:28;24.60;99.90
4697;DHT22;2362;50.780;0.292;2023-06-14T07:50:54;25.00;99.90
4697;DHT22;2362;50.780;0.292;2023-06-14T07:53:19;24.80;99.90
4697;DHT22;2362;50.780;0.292;2023-06-14T07:55:45;24.80;99.90
4697;DHT22;2362;50.780;0.292;2023-06-14T07:58:12;25.40;99.90
4697;DHT22;2362;50.780;0.292;2023-06-14T08:00:37;25.50;99.90
4697;DHT22;2362;50.780;0.292;2023-06-14T08:03:03;25.40;99.90
4697;DHT22;2362;50.780;0.292;2023-06-14T08:05:29;25.40;99.90
4697;DHT22;2362;50.780;0.292;2023-06-14T08:07:55;25.70;99.90
4697;DHT22;2362;50.780;0.292;2023-06-14T08:10:22;26.10;99.90
4697;DHT22;2362;50.780;0.292;2023-06-14T08:12:48;26.10;99.90
4697;DHT22;2362;50.780;0.292;2023-06-14T08:15:16;26.20;99.90
4697;DHT22;2362;50.780;0.292;2023-06-14T08:17:43;26.10;99.90
4697;DHT22;2362;50.780;0.292;2023-06-14T08:20:09;26.30;99.90
4697;DHT22;2362;50.780;0.292;2023-06-14T08:22:36;26.50;99.90
4697;DHT22;2362;50.780;0.292;2023-06-14T08:25:03;26.20;99.90
4697;DHT22;2362;50.780;0.292;2023-06-14T08:27:29;26.20;99.90
4697;DHT22;2362;50.780;0.292;2023-06-14T08:29:55;26.40;99.90
4697;DHT22;2362;50.780;0.292;2023-06-14T08:32:21;26.30;99.90
4697;DHT22;2362;50.780;0.292;2023-06-14T08:34:47;26.40;99.90
4697;DHT22;2362;50.780;0.292;2023-06-14T08:37:13;26.80;99.90
4697;DHT22;2362;50.780;0.292;2023-06-14T08:39:39;26.90;99.90
4697;DHT22;2362;50.780;0.292;2023-06-14T08:42:06;27.00;99.90
4697;DHT22;2362;50.780;0.292;2023-06-14T08:44:33;27.10;99.90
4697;DHT22;2362;50.780;0.292;2023-06-14T08:47:00;27.30;99.90
4697;DHT22;2362;50.780;0.292;2023-06-14T08:49:26;28.00;99.30
4697;DHT22;2362;50.780;0.292;2023-06-14T08:51:58;27.70;97.50
4697;DHT22;2362;50.780;0.292;2023-06-14T08:54:27;27.30;98.30
4697;DHT22;2362;50.780;0.292;2023-06-14T08:56:55;27.40;98.50
4697;DHT22;2362;50.780;0.292;2023-06-14T08:59:27;27.40;97.90
4697;DHT22;2362;50.780;0.292;2023-06-14T09:01:54;27.30;98.60
4697;DHT22;2362;50.780;0.292;2023-06-14T09:04:23;27.30;98.70
4697;DHT22;2362;50.780;0.292;2023-06-14T09:06:50;27.10;99.00
4697;DHT22;2362;50.780;0.292;2023-06-14T09:09:22;26.70;99.30
4697;DHT22;2362;50.780;0.292;2023-06-14T09:11:51;26.70;99.30
4697;DHT22;2362;50.780;0.292;2023-06-14T09:14:23;27.20;98.70
4697;DHT22;2362;50.780;0.292;2023-06-14T09:16:52;27.10;97.30
4697;DHT22;2362;50.780;0.292;2023-06-14T09:19:25;27.30;98.20
4697;DHT22;2362;50.780;0.292;2023-06-14T09:21:52;27.30;97.10
4697;DHT22;2362;50.780;0.292;2023-06-14T09:24:19;27.50;98.20
4697;DHT22;2362;50.780;0.292;2023-06-14T09:26:47;27.20;97.70
4697;DHT22;2362;50.780;0.292;2023-06-14T09:29:13;27.40;99.30
4697;DHT22;2362;50.780;0.292;2023-06-14T09:31:39;27.20;99.40
4697;DHT22;2362;50.780;0.292;2023-06-14T09:34:05;27.20;99.90
4697;DHT22;2362;50.780;0.292;2023-06-14T09:36:32;27.10;99.80
4697;DHT22;2362;50.780;0.292;2023-06-14T09:38:59;26.90;99.90
4697;DHT22;2362;50.780;0.292;2023-06-14T09:43:59;26.50;99.90
4697;DHT22;2362;50.780;0.292;2023-06-14T09:46:28;26.40;99.90
4697;DHT22;2362;50.780;0.292;2023-06-14T09:48:58;26.30;99.90
4697;DHT22;2362;50.780;0.292;2023-06-14T09:51:25;26.20;99.90
4697;DHT22;2362;50.780;0.292;2023-06-14T09:53:52;26.20;99.90
4697;DHT22;2362;50.780;0.292;2023-06-14T09:56:29;26.10;99.90
4697;DHT22;2362;50.780;0.292;2023-06-14T09:58:59;26.10;99.90
4697;DHT22;2362;50.780;0.292;2023-06-14T10:01:50;26.00;99.90
4697;DHT22;2362;50.780;0.292;2023-06-14T10:04:19;26.00;99.90
4697;DHT22;2362;50.780;0.292;2023-06-14T10:06:47;25.70;99.90
4697;DHT22;2362;50.780;0.292;2023-06-14T10:09:13;25.50;99.90
4697;DHT22;2362;50.780;0.292;2023-06-14T10:11:40;25.50;99.90
4697;DHT22;2362;50.780;0.292;2023-06-14T10:14:10;25.30;99.90
4697;DHT22;2362;50.780;0.292;2023-06-14T10:16:52;25.30;99.90
4697;DHT22;2362;50.780;0.292;2023-06-14T10:22:35;25.40;99.90
4697;DHT22;2362;50.780;0.292;2023-06-14T10:25:07;25.50;99.90
4697;DHT22;2362;50.780;0.292;2023-06-14T10:27:37;25.50;99.90
4697;DHT22;2362;50.780;0.292;2023-06-14T10:30:04;25.50;99.90
4697;DHT22;2362;50.780;0.292;2023-06-14T10:32:31;25.40;99.90
4697;DHT22;2362;50.780;0.292;2023-06-14T10:35:05;25.60;99.90
4697;DHT22;2362;50.780;0.292;2023-06-14T10:37:32;25.70;99.90
4697;DHT22;2362;50.780;0.292;2023-06-14T10:39:58;25.50;99.90
4697;DHT22;2362;50.780;0.292;2023-06-14T10:42:29;25.20;99.90
4697;DHT22;2362;50.780;0.292;2023-06-14T10:44:57;25.30;99.90
4697;DHT22;2362;50.780;0.292;2023-06-14T10:47:32;25.30;99.90
4697;DHT22;2362;50.780;0.292;2023-06-14T10:50:10;25.10;99.90
4697;DHT22;2362;50.780;0.292;2023-06-14T10:52:41;24.80;99.90
4697;DHT22;2362;50.780;0.292;2023-06-14T10:55:11;24.70;99.90
4697;DHT22;2362;50.780;0.292;2023-06-14T10:57:43;24.90;99.90
4697;DHT22;2362;50.780;0.292;2023-06-14T11:00:10;25.10;99.90
4697;DHT22;2362;50.780;0.292;2023-06-14T11:11:22;25.50;99.90
4697;DHT22;2362;50.780;0.292;2023-06-14T11:13:49;25.40;99.90
4697;DHT22;2362;50.780;0.292;2023-06-14T11:16:18;25.20;99.90
4697;DHT22;2362;50.780;0.292;2023-06-14T11:18:46;25.10;99.90
4697;DHT22;2362;50.780;0.292;2023-06-14T11:21:16;25.30;99.90
4697;DHT22;2362;50.780;0.292;2023-06-14T11:23:52;25.20;99.90
4697;DHT22;2362;50.780;0.292;2023-06-14T11:26:27;25.30;99.90
4697;DHT22;2362;50.780;0.292;2023-06-14T11:28:56;25.20;99.90
4697;DHT22;2362;50.780;0.292;2023-06-14T11:31:22;25.20;99.90
4697;DHT22;2362;50.780;0.292;2023-06-14T11:33:57;25.20;99.90
4697;DHT22;2362;50.780;0.292;2023-06-14T11:36:48;25.40;99.90
4697;DHT22;2362;50.780;0.292;2023-06-14T11:39:14;25.40;99.90
4697;DHT22;2362;50.780;0.292;2023-06-14T11:41:42;25.60;99.90
4697;DHT22;2362;50.780;0.292;2023-06-14T11:44:09;25.70;99.90
4697;DHT22;2362;50.780;0.292;2023-06-14T11:46:35;25.70;99.90
4697;DHT22;2362;50.780;0.292;2023-06-14T11:49:02;25.70;99.90
4697;DHT22;2362;50.780;0.292;2023-06-14T11:51:32;25.90;99.90
4697;DHT22;2362;50.780;0.292;2023-06-14T11:53:58;25.90;99.90
4697;DHT22;2362;50.780;0.292;2023-06-14T11:56:25;25.70;99.90
4697;DHT22;2362;50.780;0.292;2023-06-14T11:58:52;25.70;99.90
4697;DHT22;2362;50.780;0.292;2023-06-14T12:01:22;25.80;99.90
4697;DHT22;2362;50.780;0.292;2023-06-14T12:03:51;25.50;99.90
4697;DHT22;2362;50.780;0.292;2023-06-14T12:06:29;25.40;99.90
4697;DHT22;2362;50.780;0.292;2023-06-14T12:08:57;25.30;99.90
4697;DHT22;2362;50.780;0.292;2023-06-14T12:11:23;25.20;99.90
4697;DHT22;2362;50.780;0.292;2023-06-14T12:13:48;25.30;99.90
4697;DHT22;2362;50.780;0.292;2023-06-14T12:16:14;25.20;99.90
4697;DHT22;2362;50.780;0.292;2023-06-14T12:18:41;25.10;99.90
4697;DHT22;2362;50.780;0.292;2023-06-14T12:21:09;25.10;99.90
4697;DHT22;2362;50.780;0.292;2023-06-14T12:26:05;24.90;99.90
4697;DHT22;2362;50.780;0.292;2023-06-14T12:28:31;24.90;99.90
4697;DHT22;2362;50.780;0.292;2023-06-14T12:30:57;24.60;99.90
4697;DHT22;2362;50.780;0.292;2023-06-14T12:33:24;24.40;99.90
4697;DHT22;2362;50.780;0.292;2023-06-14T12:35:50;24.50;99.90
4697;DHT22;2362;50.780;0.292;2023-06-14T12:38:17;24.50;99.90
4697;DHT22;2362;50.780;0.292;2023-06-14T12:40:43;24.60;99.90
4697;DHT22;2362;50.780;0.292;2023-06-14T12:43:09;24.70;99.90
4697;DHT22;2362;50.780;0.292;2023-06-14T12:45:34;24.60;99.90
4697;DHT22;2362;50.780;0.292;2023-06-14T12:48:00;24.40;99.90
4697;DHT22;2362;50.780;0.292;2023-06-14T12:50:25;24.40;99.90
4697;DHT22;2362;50.780;0.292;2023-06-14T12:52:51;24.40;99.90
4697;DHT22;2362;50.780;0.292;2023-06-14T12:55:17;24.30;99.90
4697;DHT22;2362;50.780;0.292;2023-06-14T12:57:43;24.30;99.90
4697;DHT22;2362;50.780;0.292;2023-06-14T13:00:09;24.50;99.90
4697;DHT22;2362;50.780;0.292;2023-06-14T13:02:36;24.50;99.90
4697;DHT22;2362;50.780;0.292;2023-06-14T13:05:01;24.70;99.90
4697;DHT22;2362;50.780;0.292;2023-06-14T13:07:29;24.80;99.90
4697;DHT22;2362;50.780;0.292;2023-06-14T13:09:54;24.50;99.90
4697;DHT22;2362;50.780;0.292;2023-06-14T13:12:20;24.50;99.90
4697;DHT22;2362;50.780;0.292;2023-06-14T13:14:46;24.70;99.90
4697;DHT22;2362;50.780;0.292;2023-06-14T13:17:11;24.60;99.90
4697;DHT22;2362;50.780;0.292;2023-06-14T13:19:37;24.50;99.90
4697;DHT22;2362;50.780;0.292;2023-06-14T13:22:03;24.60;99.90
4697;DHT22;2362;50.780;0.292;2023-06-14T13:24:29;24.60;99.90
4697;DHT22;2362;50.780;0.292;2023-06-14T13:26:55;24.80;99.90
4697;DHT22;2362;50.780;0.292;2023-06-14T13:29:23;24.90;99.90
4697;DHT22;2362;50.780;0.292;2023-06-14T13:31:49;24.50;99.90
4697;DHT22;2362;50.780;0.292;2023-06-14T13:34:14;24.10;99.90
4697;DHT22;2362;50.780;0.292;2023-06-14T13:36:40;23.90;99.90
4697;DHT22;2362;50.780;0.292;2023-06-14T13:39:31;23.90;99.90
4697;DHT22;2362;50.780;0.292;2023-06-14T13:41:57;23.80;99.90
4697;DHT22;2362;50.780;0.292;2023-06-14T13:44:22;23.80;99.90
4697;DHT22;2362;50.780;0.292;2023-06-14T13:46:48;23.80;99.90
4697;DHT22;2362;50.780;0.292;2023-06-14T13:49:13;23.80;99.90
4697;DHT22;2362;50.780;0.292;2023-06-14T13:51:39;23.70;99.90
4697;DHT22;2362;50.780;0.292;2023-06-14T13:54:05;23.60;99.90
4697;DHT22;2362;50.780;0.292;2023-06-14T13:56:31;23.60;99.90
4697;DHT22;2362;50.780;0.292;2023-06-14T13:58:56;23.40;99.90
4697;DHT22;2362;50.780;0.292;2023-06-14T14:01:47;23.40;99.90
4697;DHT22;2362;50.780;0.292;2023-06-14T14:04:13;23.40;99.90
4697;DHT22;2362;50.780;0.292;2023-06-14T14:06:39;23.30;99.90
4697;DHT22;2362;50.780;0.292;2023-06-14T14:09:05;23.10;99.90
4697;DHT22;2362;50.780;0.292;2023-06-14T14:11:31;23.10;99.90
4697;DHT22;2362;50.780;0.292;2023-06-14T14:13:59;23.10;99.90
4697;DHT22;2362;50.780;0.292;2023-06-14T14:16:24;23.10;99.90
4697;DHT22;2362;50.780;0.292;2023-06-14T14:18:50;22.80;99.90
4697;DHT22;2362;50.780;0.292;2023-06-14T14:21:16;22.70;99.90
4697;DHT22;2362;50.780;0.292;2023-06-14T14:23:41;22.80;99.90
4697;DHT22;2362;50.780;0.292;2023-06-14T14:26:07;22.80;99.90
4697;DHT22;2362;50.780;0.292;2023-06-14T14:28:33;22.80;99.90
4697;DHT22;2362;50.780;0.292;2023-06-14T14:30:58;22.90;99.90
4697;DHT22;2362;50.780;0.292;2023-06-14T14:33:25;22.70;99.90
4697;DHT22;2362;50.780;0.292;2023-06-14T14:35:50;22.70;99.90
4697;DHT22;2362;50.780;0.292;2023-06-14T14:38:16;22.70;99.90
4697;DHT22;2362;50.780;0.292;2023-06-14T14:40:43;22.80;99.90
4697;DHT22;2362;50.780;0.292;2023-06-14T14:43:09;22.80;99.90
4697;DHT22;2362;50.780;0.292;2023-06-14T14:45:37;22.70;99.90
4697;DHT22;2362;50.780;0.292;2023-06-14T14:48:03;22.70;99.90
4697;DHT22;2362;50.780;0.292;2023-06-14T14:50:29;22.90;99.90
4697;DHT22;2362;50.780;0.292;2023-06-14T14:52:55;22.90;99.90
4697;DHT22;2362;50.780;0.292;2023-06-14T14:55:21;23.00;99.90
4697;DHT22;2362;50.780;0.292;2023-06-14T14:57:47;22.80;99.90
4697;DHT22;2362;50.780;0.292;2023-06-14T15:00:13;22.90;99.90
4697;DHT22;2362;50.780;0.292;2023-06-14T15:02:39;23.00;99.90
4697;DHT22;2362;50.780;0.292;2023-06-14T15:05:05;23.00;99.90
4697;DHT22;2362;50.780;0.292;2023-06-14T15:07:31;22.90;99.90
4697;DHT22;2362;50.780;0.292;2023-06-14T15:09:59;22.70;99.90
4697;DHT22;2362;50.780;0.292;2023-06-14T15:12:25;22.80;99.90
4697;DHT22;2362;50.780;0.292;2023-06-14T15:14:51;22.80;99.90
4697;DHT22;2362;50.780;0.292;2023-06-14T15:17:21;22.80;99.90
4697;DHT22;2362;50.780;0.292;2023-06-14T15:19:47;23.10;99.90
4697;DHT22;2362;50.780;0.292;2023-06-14T15:22:16;23.00;99.90
4697;DHT22;2362;50.780;0.292;2023-06-14T15:24:44;22.90;99.90
4697;DHT22;2362;50.780;0.292;2023-06-14T15:27:11;22.80;99.90
4697;DHT22;2362;50.780;0.292;2023-06-14T15:29:38;22.90;99.90
4697;DHT22;2362;50.780;0.292;2023-06-14T15:32:05;22.90;99.90
4697;DHT22;2362;50.780;0.292;2023-06-14T15:34:32;23.00;99.90
4697;DHT22;2362;50.780;0.292;2023-06-14T15:36:57;22.90;99.90
4697;DHT22;2362;50.780;0.292;2023-06-14T15:39:23;22.80;99.90
4697;DHT22;2362;50.780;0.292;2023-06-14T15:41:50;22.50;99.90
4697;DHT22;2362;50.780;0.292;2023-06-14T15:44:17;22.30;99.90
4697;DHT22;2362;50.780;0.292;2023-06-14T15:46:42;22.20;99.90
4697;DHT22;2362;50.780;0.292;2023-06-14T15:49:09;22.10;99.90
4697;DHT22;2362;50.780;0.292;2023-06-14T15:51:39;22.00;99.90
4697;DHT22;2362;50.780;0.292;2023-06-14T15:54:30;21.90;99.90
4697;DHT22;2362;50.780;0.292;2023-06-14T15:56:56;21.90;99.90
4697;DHT22;2362;50.780;0.292;2023-06-14T15:59:21;21.70;99.90
4697;DHT22;2362;50.780;0.292;2023-06-14T16:01:47;21.80;99.90
4697;DHT22;2362;50.780;0.292;2023-06-14T16:04:13;21.80;99.90
4697;DHT22;2362;50.780;0.292;2023-06-14T16:06:39;21.90;99.90
4697;DHT22;2362;50.780;0.292;2023-06-14T16:09:04;22.00;99.90
4697;DHT22;2362;50.780;0.292;2023-06-14T16:11:30;22.00;99.90
4697;DHT22;2362;50.780;0.292;2023-06-14T16:13:56;21.80;99.90
4697;DHT22;2362;50.780;0.292;2023-06-14T16:16:22;21.90;99.90
4697;DHT22;2362;50.780;0.292;2023-06-14T16:18:48;22.00;99.90
4697;DHT22;2362;50.780;0.292;2023-06-14T16:21:14;21.90;99.90
4697;DHT22;2362;50.780;0.292;2023-06-14T16:23:41;22.00;99.90
4697;DHT22;2362;50.780;0.292;2023-06-14T16:26:11;22.00;99.90